Duckwater, Nevada Weather observations

Data are for 10 minute period ending at time listed.
 Day   Time   Solar   Ave.   Ave.  Ave.  Vector  Max.   Baro.   Total    
  of    of     Rad.   Air    Rel.  Wind   Wind   Wind  Press.  Precip.   
Year   Day            Temp.  Hum.  Speed  Dir.   Gust                    
2016   (PST)   w/m2    F      %     mph   deg.    mph    mb.     in.    
-----------------------------------------------------------------------
  38   16:10    171   34.8    58    1.7   197     5.1   846.8   0.00  
  38   16:20    143   34.3    57    4.3   164     6.5   846.8   0.00  
  38   16:30    110   33.8    59    3.0   158     5.6   846.8   0.00  
  38   16:40     73   28.4    66    3.3   196     6.6   846.8   0.00  
  38   16:50     39   26.3    72    3.2   224     6.1   846.9   0.00  
  38   17:00      8   25.5    77    2.0   272     5.2   846.9   0.00  
  38   17:10      7   25.9    80    3.9   315    12.8   846.8   0.00  
  38   17:20      4   34.4    67   10.8   354    15.5   846.8   0.00  
  38   17:30      0   34.3    66   10.1   357    16.2   847.0   0.00  
  38   17:40      0   34.0    66   11.9   352    16.2   847.0   0.00  
  38   17:50      0   34.1    67   12.5   357    16.8   846.8   0.00  
  38   18:00      0   34.1    66   12.7     2    17.8   846.9   0.00  
  38   18:10      0   33.8    67   10.9     1    17.2   847.0   0.00  
  38   18:20      0   33.4    68   11.7     2    16.3   847.0   0.00  
  38   18:30      0   33.5    67   12.4   357    16.8   847.1   0.00  
  38   18:40      0   32.6    68   12.0   352    15.6   847.3   0.00  
  38   18:50      0   32.3    68   11.3   353    15.3   847.3   0.00  
  38   19:00      0   32.3    68   11.1   359    14.9   847.4   0.00  
  38   19:10      0   32.3    67   12.2     5    16.3   847.4   0.00  
  38   19:20      0   32.4    66   12.2     4    16.4   847.4   0.00  
  38   19:30      0   32.3    66   10.1     2    15.4   847.5   0.00  
  38   19:40      0   32.5    65   10.4   356    14.8   847.6   0.00  
  38   19:50      0   32.0    66   10.7   354    15.2   847.8   0.00  
  38   20:00      0   31.4    68    9.7   356    13.3   847.7   0.00  
  38   20:10      0   31.5    68    9.8   356    13.4   847.7   0.00  
  38   20:20      0   32.0    67    8.2   355    12.1   847.9   0.00  
  38   20:30      0   31.7    68    9.3   353    12.8   848.0   0.00  
  38   20:40      0   31.8    67    9.9   352    13.2   847.9   0.00  
  38   20:50      0   32.1    67    9.2   353    14.0   847.9   0.00  
  38   21:00      0   31.9    67   10.3   354    13.5   847.9   0.00  
  38   21:10      0   31.6    68    9.8   355    14.3   848.0   0.00  
  38   21:20      0   31.2    69    8.8   356    12.7   848.0   0.00  
  38   21:30      0   31.0    69    7.9   353    12.4   848.1   0.00  
  38   21:40      0   31.1    68    6.9   352    11.5   848.2   0.00  
  38   21:50      0   30.9    68    5.3   348     9.7   848.3   0.00  
  38   22:00      0   30.1    70    4.3   330     7.3   848.4   0.00  
  38   22:10      0   28.2    73    2.8   318     7.2   848.3   0.00  
  38   22:20      0   29.6    71    7.5   352    11.1   848.3   0.00  
  38   22:30      0   29.6    70    8.3   358    12.7   848.3   0.00  
  38   22:40      0   29.0    71    7.4     4    12.6   848.4   0.00  
  38   22:50      0   29.4    70    9.8     4    13.4   848.5   0.00  
  38   23:00      0   28.6    71    8.8   357    12.6   848.6   0.00  
  38   23:10      0   28.6    71    8.4     2    13.2   848.7   0.00  
  38   23:20      0   29.2    70   10.5   355    14.8   848.7   0.00  
  38   23:30      0   29.2    70   11.6   352    14.8   848.8   0.00  
  38   23:40      0   29.4    69   10.9   352    14.9   848.8   0.00  
  38   23:50      0   30.0    68    8.9   355    12.6   848.9   0.00  
  39    0:00      0   29.7    68    7.7   346    11.8   849.0   0.00  
  39    0:10      0   29.4    69    7.4   344    10.3   849.0   0.00  
  39    0:20      0   29.3    69    8.0   350    12.0   849.0   0.00  
  39    0:30      0   29.3    69    8.3   357    11.5   848.9   0.00  
  39    0:40      0   29.3    69    8.0   358    12.6   848.9   0.00  
  39    0:50      0   29.6    68    8.9     5    13.2   848.8   0.00  
  39    1:00      0   29.7    68    8.7     8    12.3   848.8   0.00  
  39    1:10      0   29.8    67    9.6     6    13.0   848.9   0.00  
  39    1:20      0   29.8    67    8.1   360    12.9   848.9   0.00  
  39    1:30      0   29.7    67    7.7     3    11.1   848.9   0.00  
  39    1:40      0   29.7    67    6.6     3    10.2   848.9   0.00  
  39    1:50      0   29.9    66    4.0     0     9.1   848.9   0.00  
  39    2:00      0   27.1    68    1.9   136     4.8   848.9   0.00  
  39    2:10      0   23.2    76    2.9   176    10.4   849.0   0.00  
  39    2:20      0   22.3    77    1.8   158     6.4   849.0   0.00  
  39    2:30      0   21.0    79    0.4   194     2.6   849.0   0.00  
  39    2:40      0   19.5    80    0.0   200     0.5   849.0   0.00  
  39    2:50      0   18.6    83    1.3   136     3.5   849.0   0.00  
  39    3:00      0   21.2    83    3.0   345     6.9   849.0   0.00  
  39    3:10      0   24.6    76    4.6   338     7.9   848.9   0.00  
  39    3:20      0   25.9    72    6.7   326     9.4   848.9   0.00  
  39    3:30      0   25.6    73    5.7   310     8.3   848.9   0.00  
  39    3:40      0   24.3    75    2.7   323     5.1   848.9   0.00  
  39    3:50      0   23.9    75    3.9   351     7.9   848.9   0.00  
  39    4:00      0   24.7    74    6.8   345    11.0   848.9   0.00  
  39    4:10      0   25.5    72    5.1   328     8.0   848.9   0.00  
  39    4:20      0   24.6    74    5.4   328     8.0   848.9   0.00  
  39    4:30      0   23.9    75    4.8   343     7.1   848.8   0.00  
  39    4:40      0   21.9    78    4.2   359     5.3   848.8   0.00  
  39    4:50      0   21.5    79    2.1     4     4.4   848.8   0.00  
  39    5:00      0   18.5    80    1.7   163     2.9   848.9   0.00  
  39    5:10      0   18.0    83    0.1   163     0.9   848.9   0.00  
  39    5:20      0   18.6    83    0.9   166     2.0   848.9   0.00  
  39    5:30      0   18.3    84    0.2   186     0.9   849.0   0.00  
  39    5:40      0   19.5    84    1.4   165     3.4   849.1   0.00  
  39    5:50      0   20.0    82    1.7   314     6.3   849.1   0.00  
  39    6:00      0   20.3    81    2.1   288     4.9   849.2   0.00  
  39    6:10      0   20.3    81    0.6   302     2.8   849.2   0.00  
  39    6:20      0   20.3    81    2.1   284     4.8   849.2   0.00  
  39    6:30      0   21.9    79    2.1   314     5.0   849.2   0.00  
  39    6:40      2   21.8    78    2.2   342     5.1   849.2   0.00  
  39    6:50      5   21.3    78    2.9   335     5.2   849.3   0.00  
  39    7:00      8   22.1    78    4.1   337     5.9   849.3   0.00  
  39    7:10     37   22.2    76    3.2    18     4.7   849.3   0.00  
  39    7:20     69   23.1    75    2.4   341     4.0   849.3   0.00  
  39    7:30    107   24.1    73    2.3   326     4.5   849.4   0.00  
  39    7:40    141   24.1    72    3.5   352     6.3   849.4   0.00  
  39    7:50    170   24.7    71    1.0     4     3.1   849.5   0.00  
  39    8:00    201   26.3    70    2.1   345     7.5   849.4   0.00  
  39    8:10    232   27.8    69    6.4   320    11.8   849.5   0.00  
  39    8:20    263   29.6    66    6.8   325    10.2   849.6   0.00  
  39    8:30    293   30.7    65    4.3   342     7.1   849.6   0.00  
  39    8:40    323   30.9    64    3.8   346     7.6   849.7   0.00  
  39    8:50    353   31.4    64    5.0   342     8.0   849.7   0.00  
  39    9:00    381   32.4    63    5.4   332     8.2   849.7   0.00  
  39    9:10    409   33.5    62    5.1   319     7.5   849.8   0.00  
  39    9:20    436   34.5    61    5.2   316     7.7   849.9   0.00  
  39    9:30    460   34.6    61    7.4   310     9.9   849.8   0.00  
  39    9:40    484   34.8    60    8.0   311    10.1   849.9   0.00  
  39    9:50    507   35.6    61    7.7   318    10.2   849.9   0.00  
  39   10:00    527   36.3    61    7.4   317    10.1   849.9   0.00  
  39   10:10    547   37.2    59    6.8   308     9.9   849.9   0.00  
  39   10:20    566   38.0    57    5.0   294     7.5   849.9   0.00  
  39   10:30    582   36.4    57    3.0   194     7.2   849.9   0.00  
  39   10:40    595   33.5    61    4.9   178     7.2   849.7   0.00  
  39   10:50    608   33.5    62    3.9   179     5.3   849.5   0.00  
  39   11:00    620   36.0    58    1.9   182     3.1   849.3   0.00  
  39   11:10    632   38.7    55    1.3   223     4.5   849.3   0.00  
  39   11:20    641   40.4    56    5.5   302    10.0   849.1   0.00  
  39   11:30    646   41.9    53    5.0   325     8.6   849.0   0.00  
  39   11:40    651   41.9    54    5.8   327     9.1   848.8   0.00  
  39   11:50    651   41.4    56    6.6   340    10.4   848.6   0.00  
  39   12:00    654   42.3    52    7.4   358    11.6   848.5   0.00  
  39   12:10    652   42.4    52    7.4    12    11.5   848.4   0.00  
  39   12:20    651   43.1    49    6.2   356     9.5   848.3   0.00  
  39   12:30    648   43.5    52    5.0   315     9.0   848.3   0.00  
  39   12:40    641   44.7    51    3.5   336     6.6   848.3   0.00  
  39   12:50    633   45.2    48    7.3    12    14.2   848.0   0.00  
  39   13:00    623   44.2    50    7.9     3    13.5   847.8   0.00  
  39   13:10    612   44.7    49    3.9   240     7.4   847.7   0.00  
  39   13:20    597   39.8    56    7.4   174    10.3   847.9   0.00  
  39   13:30    581   35.7    62    6.7   162     9.1   847.9   0.00  
  39   13:40    565   36.6    61    5.8   151     8.0   847.8   0.00  
  39   13:50    547   37.1    59    7.5   172    10.4   847.8   0.00  
  39   14:00    527   35.2    63    8.1   161    11.1   847.7   0.00  
  39   14:10    507   35.5    62    6.6   161     9.0   847.5   0.00  
  39   14:20    485   35.3    61    7.5   169     9.8   847.5   0.00  
  39   14:30    461   34.7    62    6.3   162     9.3   847.5   0.00  
  39   14:40    437   36.6    59    4.9   166     6.9   847.4   0.00  
  39   14:50    411   37.2    58    4.2   178     5.4   847.5   0.00  
  39   15:00    384   38.5    57    3.5   188     5.4   847.5   0.00  
  39   15:10    357   36.3    61    5.3   184     7.5   847.5   0.00  
  39   15:20    327   34.8    62    6.4   174     8.8   847.6   0.00  
  39   15:30    297   33.6    65    7.1   170     9.5   847.6   0.00  
  39   15:40    267   32.3    66    7.6   170    10.0   847.7   0.00  
  39   15:50    237   31.7    67    6.7   176     8.6   847.7   0.00  
  39   16:00    206   32.0    67    5.3   181     7.6   847.7   0.00  

Return to Duckwater graphs page.


Western Regional Climate Center,wrcc@dri.edu